Time;durP1;ratioP1;P1;durP2;ratioP2;P2;SDS_P1;SDS_P2;PMS_P1;PMS_P2;Temp;Humidity;BMP_temperature;BMP_pressure;BME280_temperature;BME280_humidity;BME280_pressure;Samples;Min_cycle;Max_cycle;Signal;HPM_P1;HPM_P2
2023/12/12 00:01:55;;;;;;;0.60;0.60;;;;;7.20;95433.00;;;;5075572;28;20598;-61
2023/12/12 00:04:23;;;;;;;1.27;1.17;;;;;7.20;95443.00;;;;5075643;28;20219;-61
2023/12/12 00:06:52;;;;;;;0.90;0.90;;;;;7.20;95440.00;;;;5075391;28;20667;-61
2023/12/12 00:09:21;;;;;;;0.70;0.70;;;;;7.10;95437.00;;;;5075462;28;20192;-61
2023/12/12 00:11:49;;;;;;;1.53;1.43;;;;;7.00;95426.00;;;;5075348;28;20266;-61
2023/12/12 00:14:17;;;;;;;1.10;1.10;;;;;7.00;95430.00;;;;5075611;28;20198;-60
2023/12/12 00:16:44;;;;;;;1.37;1.27;;;;;7.00;95428.00;;;;5075345;28;20192;-62
2023/12/12 00:19:11;;;;;;;1.33;1.23;;;;;7.00;95432.00;;;;5075592;28;20194;-61
2023/12/12 00:21:39;;;;;;;1.07;1.07;;;;;7.10;95437.00;;;;5075455;28;20207;-61
2023/12/12 00:24:08;;;;;;;3.57;1.30;;;;;7.00;95436.00;;;;5075087;28;20200;-61
2023/12/12 00:26:35;;;;;;;1.10;1.10;;;;;7.00;95426.00;;;;5075100;28;20622;-62
2023/12/12 00:29:03;;;;;;;8.23;1.10;;;;;7.00;95441.00;;;;5075106;28;20198;-61
2023/12/12 00:31:30;;;;;;;0.70;0.70;;;;;6.90;95428.00;;;;5074965;28;20212;-62
2023/12/12 00:33:57;;;;;;;0.70;0.70;;;;;6.90;95448.00;;;;5074953;28;20194;-62
2023/12/12 00:36:25;;;;;;;0.70;0.70;;;;;6.90;95445.00;;;;5075349;28;20191;-61
2023/12/12 00:38:52;;;;;;;0.70;0.70;;;;;6.90;95450.00;;;;5075215;28;20197;-61
2023/12/12 00:41:31;;;;;;;0.60;0.60;;;;;7.00;95444.00;;;;5074787;28;20203;-61
2023/12/12 00:43:58;;;;;;;2.23;1.37;;;;;6.90;95432.00;;;;5075274;28;20264;-61
2023/12/12 00:46:26;;;;;;;2.23;1.63;;;;;7.00;95441.00;;;;5074613;28;20215;-61
2023/12/12 00:48:53;;;;;;;0.97;0.97;;;;;7.00;95443.00;;;;5074665;28;20203;-61
2023/12/12 00:51:20;;;;;;;0.80;0.80;;;;;7.10;95449.00;;;;5074513;28;20559;-62
2023/12/12 00:53:48;;;;;;;1.70;1.07;;;;;7.10;95458.00;;;;5074615;28;20245;-62
2023/12/12 00:56:15;;;;;;;0.60;0.60;;;;;7.10;95460.00;;;;5074783;28;20191;-62
2023/12/12 00:58:44;;;;;;;3.50;0.90;;;;;7.00;95454.00;;;;5075011;28;20248;-62
2023/12/12 01:01:13;;;;;;;8.70;1.53;;;;;7.00;95454.00;;;;5074375;28;20191;-62
2023/12/12 01:03:41;;;;;;;1.70;0.83;;;;;7.00;95449.00;;;;5074421;28;20208;-62
2023/12/12 01:06:09;;;;;;;1.17;0.93;;;;;7.00;95460.00;;;;5074224;28;20215;-62
2023/12/12 01:08:36;;;;;;;0.60;0.60;;;;;6.90;95447.00;;;;5074365;28;20681;-62
2023/12/12 01:11:04;;;;;;;0.97;0.97;;;;;7.00;95458.00;;;;5074502;28;20745;-62
2023/12/12 01:13:31;;;;;;;1.03;1.03;;;;;7.00;95458.00;;;;5074036;28;20265;-62
2023/12/12 01:16:00;;;;;;;0.80;0.80;;;;;7.00;95447.00;;;;5074164;28;20191;-62
2023/12/12 01:18:27;;;;;;;0.60;0.60;;;;;7.00;95450.00;;;;5074099;28;20195;-62
2023/12/12 01:20:55;;;;;;;0.63;0.63;;;;;7.00;95447.00;;;;5074191;28;20191;-62
2023/12/12 01:23:22;;;;;;;8.97;1.43;;;;;7.00;95453.00;;;;5073997;28;20717;-62
2023/12/12 01:25:50;;;;;;;0.60;0.60;;;;;6.90;95442.00;;;;5074031;28;20242;-62
2023/12/12 01:28:17;;;;;;;0.60;0.60;;;;;6.90;95438.00;;;;5074472;28;20670;-62
2023/12/12 01:30:45;;;;;;;0.90;0.90;;;;;6.90;95431.00;;;;5073850;28;20195;-62
2023/12/12 01:33:13;;;;;;;1.80;1.17;;;;;6.90;95428.00;;;;5073762;28;20219;-62
2023/12/12 01:35:41;;;;;;;0.70;0.70;;;;;6.80;95416.00;;;;5074329;28;20198;-62
2023/12/12 01:38:08;;;;;;;0.60;0.60;;;;;6.80;95421.00;;;;5073868;28;20194;-62
2023/12/12 01:40:35;;;;;;;0.60;0.60;;;;;6.90;95414.00;;;;5073781;28;20222;-62
2023/12/12 01:43:06;;;;;;;1.00;1.00;;;;;6.90;95418.00;;;;5073674;28;20286;-62
2023/12/12 01:45:34;;;;;;;0.90;0.90;;;;;6.80;95429.00;;;;5072657;28;20218;-62
2023/12/12 01:48:01;;;;;;;1.60;1.13;;;;;6.80;95425.00;;;;5073751;28;20203;-62
2023/12/12 01:50:30;;;;;;;0.70;0.70;;;;;6.80;95433.00;;;;5073805;28;20203;-62
2023/12/12 01:52:57;;;;;;;5.27;2.10;;;;;6.80;95434.00;;;;5073570;28;20687;-62
2023/12/12 01:55:25;;;;;;;0.50;0.50;;;;;6.60;95409.00;;;;5073483;28;20191;-62
2023/12/12 01:57:53;;;;;;;1.23;1.20;;;;;6.50;95422.00;;;;5073447;28;20248;-62
2023/12/12 02:00:20;;;;;;;0.60;0.60;;;;;6.50;95413.00;;;;5073506;28;20195;-62
2023/12/12 02:02:47;;;;;;;0.93;0.93;;;;;6.40;95404.00;;;;5073352;28;20267;-61
2023/12/12 02:05:16;;;;;;;0.83;0.83;;;;;6.50;95417.00;;;;5073322;28;20633;-61
2023/12/12 02:07:45;;;;;;;2.67;1.10;;;;;6.40;95405.00;;;;5073242;28;20199;-61
2023/12/12 02:10:12;;;;;;;1.20;1.07;;;;;6.40;95408.00;;;;5073557;28;20191;-62
2023/12/12 02:12:40;;;;;;;1.10;1.10;;;;;6.40;95405.00;;;;5073687;28;20218;-62
2023/12/12 02:15:10;;;;;;;2.67;1.33;;;;;6.30;95400.00;;;;5073480;28;20191;-62
2023/12/12 02:17:38;;;;;;;0.93;0.93;;;;;6.30;95397.00;;;;5073148;28;20659;-62
2023/12/12 02:20:06;;;;;;;0.67;0.67;;;;;6.30;95395.00;;;;5073142;28;20191;-62
2023/12/12 02:22:35;;;;;;;0.93;0.93;;;;;6.30;95382.00;;;;5073403;28;20269;-62
2023/12/12 02:25:02;;;;;;;0.93;0.87;;;;;6.20;95381.00;;;;5072985;28;20210;-62
2023/12/12 02:27:30;;;;;;;3.80;1.63;;;;;6.20;95369.00;;;;5073056;28;20198;-62
2023/12/12 02:29:57;;;;;;;0.60;0.60;;;;;6.20;95374.00;;;;5073012;28;20192;-62
2023/12/12 02:32:25;;;;;;;1.03;1.00;;;;;6.20;95388.00;;;;5072947;28;20210;-62
2023/12/12 02:34:52;;;;;;;0.60;0.60;;;;;6.00;95410.00;;;;5073455;28;20195;-62
2023/12/12 02:37:20;;;;;;;0.60;0.60;;;;;6.00;95405.00;;;;5073122;28;20651;-62
2023/12/12 02:39:48;;;;;;;0.80;0.80;;;;;6.00;95389.00;;;;5073602;28;20195;-62
2023/12/12 02:42:16;;;;;;;0.93;0.93;;;;;5.90;95398.00;;;;5071720;28;20219;-62
2023/12/12 02:44:43;;;;;;;1.00;1.00;;;;;5.90;95400.00;;;;5072978;28;20205;-62
2023/12/12 02:47:11;;;;;;;1.00;0.90;;;;;5.90;95395.00;;;;5073271;28;20205;-62
2023/12/12 02:49:38;;;;;;;0.67;0.67;;;;;5.90;95410.00;;;;5073218;28;20190;-62
2023/12/12 02:52:06;;;;;;;0.90;0.90;;;;;5.90;95395.00;;;;5072989;28;20222;-62
2023/12/12 02:54:33;;;;;;;0.50;0.50;;;;;5.90;95392.00;;;;5072908;28;20191;-62
2023/12/12 02:57:02;;;;;;;0.80;0.80;;;;;6.00;95397.00;;;;5074236;28;20202;-62
2023/12/12 02:59:30;;;;;;;1.00;1.00;;;;;6.00;95397.00;;;;5076872;28;20222;-62
2023/12/12 03:01:57;;;;;;;0.83;0.83;;;;;5.80;95398.00;;;;5076794;28;20229;-62
2023/12/12 03:04:24;;;;;;;0.73;0.73;;;6.90;79.30;5.70;95397.00;;;;5076683;28;20564;-62
2023/12/12 03:06:51;;;;;;;1.17;1.17;;;6.70;80.00;5.70;95396.00;;;;5076545;28;20578;-62
2023/12/12 03:09:18;;;;;;;0.90;0.90;;;6.60;80.00;5.60;95391.00;;;;5076609;28;20192;-62
2023/12/12 03:11:46;;;;;;;0.60;0.60;;;6.60;80.20;5.60;95384.00;;;;5076511;28;20213;-62
2023/12/12 03:14:14;;;;;;;1.23;1.13;;;6.50;80.80;5.70;95372.00;;;;5075324;28;20673;-62
2023/12/12 03:16:41;;;;;;;0.87;0.87;;;6.60;81.00;5.80;95387.00;;;;5076720;28;20195;-62
2023/12/12 03:19:09;;;;;;;1.80;1.37;;;6.60;81.30;5.70;95387.00;;;;5076454;28;20190;-62
2023/12/12 03:21:36;;;;;;;0.70;0.70;;;6.60;80.80;5.70;95385.00;;;;5076523;28;20237;-63
2023/12/12 03:24:03;;;;;;;0.93;0.93;;;6.60;80.80;5.70;95375.00;;;;5076335;28;20246;-62
2023/12/12 03:26:30;;;;;;;2.57;1.47;;;6.60;80.80;5.70;95370.00;;;;5076707;28;20218;-62
2023/12/12 03:28:57;;;;;;;0.60;0.60;;;6.60;81.10;5.70;95363.00;;;;5076252;28;20187;-62
2023/12/12 03:31:26;;;;;;;0.67;0.67;;;6.60;80.70;5.60;95362.00;;;;5076096;28;20233;-62
2023/12/12 03:33:53;;;;;;;3.43;1.80;;;6.60;80.70;5.70;95349.00;;;;5076180;28;20193;-62
2023/12/12 03:36:20;;;;;;;0.93;0.93;;;6.60;81.00;5.60;95349.00;;;;5076327;28;20190;-62
2023/12/12 03:38:47;;;;;;;0.70;0.70;;;6.60;80.70;5.60;95350.00;;;;5076587;28;20183;-62
2023/12/12 03:41:14;;;;;;;1.20;1.20;;;6.60;80.40;5.40;95347.00;;;;5075915;28;20191;-62
2023/12/12 03:43:41;;;;;;;0.83;0.83;;;6.40;80.70;5.40;95336.00;;;;5075922;28;20192;-62
2023/12/12 03:46:12;;;;;;;0.90;0.90;;;6.30;80.30;5.40;95336.00;;;;5075868;28;20701;-62
2023/12/12 03:48:40;;;;;;;0.70;0.70;;;6.30;80.60;5.40;95323.00;;;;5076147;28;20179;-62
2023/12/12 03:51:09;;;;;;;2.10;1.33;;;6.30;80.50;5.50;95319.00;;;;5075873;28;20192;-62
2023/12/12 03:53:36;;;;;;;0.90;0.90;;;6.30;81.20;5.50;95318.00;;;;5076290;28;20225;-62
2023/12/12 03:56:04;;;;;;;1.17;1.17;;;6.30;81.00;5.40;95317.00;;;;5076378;28;20195;-62
2023/12/12 03:58:31;;;;;;;0.77;0.77;;;6.30;80.40;5.20;95321.00;;;;5076244;28;20662;-62
2023/12/12 04:00:58;;;;;;;0.90;0.90;;;6.20;86.50;5.20;95316.00;;;;5075635;28;20191;-62
2023/12/12 04:03:26;;;;;;;0.80;0.80;;;6.10;98.60;5.20;95324.00;;;;5075874;28;20203;-61
2023/12/12 04:05:54;;;;;;;0.73;0.73;;;6.10;96.90;5.30;95321.00;;;;5075834;28;20219;-61
2023/12/12 04:08:21;;;;;;;0.80;0.80;;;6.10;78.60;5.10;95330.00;;;;5074889;28;20638;-61
2023/12/12 04:10:49;;;;;;;0.93;0.93;;;;;5.10;95331.00;;;;5075888;28;20197;-61
2023/12/12 04:13:16;;;;;;;0.93;0.93;;;6.00;80.10;5.10;95314.00;;;;5075375;28;20211;-61
2023/12/12 04:15:43;;;;;;;0.70;0.70;;;6.00;83.90;5.00;95317.00;;;;5075614;28;20222;-61
2023/12/12 04:18:10;;;;;;;1.23;1.13;;;6.00;85.00;5.10;95310.00;;;;5075353;28;20547;-61
2023/12/12 04:20:37;;;;;;;1.50;1.40;;;6.00;86.20;5.10;95314.00;;;;5075561;28;20194;-62
2023/12/12 04:23:05;;;;;;;0.80;0.80;;;6.00;87.30;5.10;95309.00;;;;5075401;28;20697;-62
2023/12/12 04:25:33;;;;;;;0.60;0.60;;;6.00;89.80;5.10;95317.00;;;;5075200;28;20213;-62
2023/12/12 04:28:00;;;;;;;1.00;1.00;;;6.00;95.70;5.10;95320.00;;;;5075899;28;20248;-62
2023/12/12 04:30:27;;;;;;;0.50;0.50;;;6.00;99.00;5.10;95312.00;;;;5075274;28;20180;-62
2023/12/12 04:32:54;;;;;;;0.70;0.70;;;6.00;99.90;5.10;95305.00;;;;5075845;28;20216;-62
2023/12/12 04:35:21;;;;;;;1.17;1.17;;;6.10;99.90;5.10;95301.00;;;;5075645;28;20241;-62
2023/12/12 04:37:48;;;;;;;0.93;0.93;;;6.00;99.90;5.10;95311.00;;;;5075582;28;20192;-62
2023/12/12 04:40:17;;;;;;;0.90;0.90;;;6.10;98.80;5.10;95296.00;;;;5075219;28;20179;-62
2023/12/12 04:42:44;;;;;;;0.60;0.60;;;;;5.20;95318.00;;;;5075298;28;20324;-62
2023/12/12 04:45:11;;;;;;;0.83;0.83;;;;;5.20;95305.00;;;;5075667;28;20221;-62
2023/12/12 04:47:39;;;;;;;0.77;0.77;;;;;5.10;95308.00;;;;5075734;28;20218;-62
2023/12/12 04:50:08;;;;;;;0.60;0.60;;;;;5.00;95307.00;;;;5075079;28;20199;-62
2023/12/12 04:52:35;;;;;;;0.80;0.80;;;;;5.00;95302.00;;;;5075713;28;20213;-62
2023/12/12 04:55:02;;;;;;;1.30;1.00;;;5.80;99.90;4.80;95305.00;;;;5076190;28;20642;-61
2023/12/12 04:57:31;;;;;;;0.70;0.70;;;;;4.80;95293.00;;;;5075597;28;20194;-61
2023/12/12 04:59:58;;;;;;;0.67;0.67;;;;;4.80;95288.00;;;;5074840;28;20203;-62
2023/12/12 05:02:25;;;;;;;0.70;0.70;;;5.70;99.90;4.80;95295.00;;;;5074836;28;20207;-61
2023/12/12 05:04:52;;;;;;;0.60;0.60;;;;;4.70;95296.00;;;;5074563;28;20183;-61
2023/12/12 05:07:20;;;;;;;2.97;1.57;;;;;4.70;95304.00;;;;5074401;28;20226;-61
2023/12/12 05:09:47;;;;;;;0.90;0.90;;;;;4.60;95307.00;;;;5074405;28;20188;-61
2023/12/12 05:12:14;;;;;;;0.77;0.77;;;;;4.50;95296.00;;;;5074386;28;20683;-61
2023/12/12 05:14:43;;;;;;;0.87;0.87;;;;;4.60;95295.00;;;;5074553;28;20205;-61
2023/12/12 05:17:11;;;;;;;0.90;0.90;;;;;4.60;95297.00;;;;5074515;28;20188;-61
2023/12/12 05:19:37;;;;;;;0.90;0.90;;;;;4.50;95294.00;;;;5074185;28;20195;-62
2023/12/12 05:22:05;;;;;;;1.20;1.20;;;;;4.60;95294.00;;;;5074259;28;20212;-61
2023/12/12 05:24:32;;;;;;;0.70;0.70;;;;;4.60;95294.00;;;;5074235;28;20192;-61
2023/12/12 05:27:00;;;;;;;1.13;1.13;;;;;4.70;95285.00;;;;5074116;28;20222;-62
2023/12/12 05:29:28;;;;;;;0.73;0.73;;;;;4.70;95287.00;;;;5073960;28;20191;-61
2023/12/12 05:31:56;;;;;;;0.80;0.80;;;;;5.10;95277.00;;;;5073909;28;20215;-61
2023/12/12 05:34:24;;;;;;;1.00;1.00;;;;;5.00;95274.00;;;;5074037;28;20661;-61
2023/12/12 05:36:51;;;;;;;1.23;1.20;;;;;5.00;95269.00;;;;5074075;28;20196;-61
2023/12/12 05:39:19;;;;;;;0.83;0.83;;;;;4.90;95272.00;;;;5073894;28;20191;-61
2023/12/12 05:41:48;;;;;;;0.90;0.90;;;;;4.80;95269.00;;;;5074195;28;20219;-61
2023/12/12 05:44:15;;;;;;;1.47;1.07;;;;;4.70;95278.00;;;;5073767;28;20238;-61
2023/12/12 05:46:43;;;;;;;2.40;1.93;;;;;4.60;95276.00;;;;5073901;28;20225;-61
2023/12/12 05:49:12;;;;;;;1.63;1.00;;;;;4.50;95266.00;;;;5073882;28;20192;-61
2023/12/12 05:51:40;;;;;;;8.80;2.90;;;;;4.60;95258.00;;;;5073838;28;20221;-61
2023/12/12 05:54:11;;;;;;;4.33;1.73;;;;;4.80;95250.00;;;;5073628;28;20240;-61
2023/12/12 05:56:39;;;;;;;1.40;1.33;;;;;4.70;95256.00;;;;5074039;28;20211;-61
2023/12/12 05:59:06;;;;;;;5.03;2.03;;;;;4.70;95262.00;;;;5073422;28;20192;-61
2023/12/12 06:01:34;;;;;;;2.00;1.53;;;;;4.60;95259.00;;;;5072031;28;20218;-61
2023/12/12 06:04:01;;;;;;;5.50;2.00;;;;;4.50;95271.00;;;;5073432;28;20575;-61
2023/12/12 06:06:30;;;;;;;2.17;1.40;;;;;4.40;95273.00;;;;5073142;28;20216;-61
2023/12/12 06:08:57;;;;;;;1.67;1.57;;;;;4.40;95273.00;;;;5073681;28;20193;-61
2023/12/12 06:11:25;;;;;;;2.53;1.73;;;;;4.30;95282.00;;;;5074453;28;20192;-60
2023/12/12 06:13:53;;;;;;;5.37;1.27;;;;;4.30;95263.00;;;;5073459;28;20238;-60
2023/12/12 06:16:20;;;;;;;1.33;1.30;;;;;4.30;95264.00;;;;5074304;28;20192;-60
2023/12/12 06:18:48;;;;;;;1.40;1.30;;;;;4.30;95257.00;;;;5074215;28;20195;-60
2023/12/12 06:21:15;;;;;;;2.63;2.43;;;;;4.30;95259.00;;;;5073229;28;20659;-60
2023/12/12 06:23:44;;;;;;;1.40;1.40;;;;;4.20;95257.00;;;;5073222;28;20658;-60
2023/12/12 06:26:12;;;;;;;1.93;1.83;;;;;4.30;95257.00;;;;5073158;28;20654;-61
2023/12/12 06:28:39;;;;;;;0.90;0.90;;;;;4.20;95264.00;;;;5073401;28;20196;-60
2023/12/12 06:31:07;;;;;;;0.70;0.70;;;;;4.20;95248.00;;;;5072979;28;20694;-60
2023/12/12 06:33:34;;;;;;;9.50;1.37;;;;;4.20;95237.00;;;;5073611;28;20223;-60
2023/12/12 06:36:02;;;;;;;1.10;1.10;;;;;4.10;95241.00;;;;5073262;28;20193;-60
2023/12/12 06:38:29;;;;;;;1.27;1.23;;;;;4.10;95246.00;;;;5073336;28;20563;-60
2023/12/12 06:40:58;;;;;;;1.87;1.77;;;;;4.20;95240.00;;;;5072053;28;20195;-60
2023/12/12 06:43:26;;;;;;;0.67;0.67;;;;;4.30;95234.00;;;;5073409;28;20582;-60
2023/12/12 06:45:53;;;;;;;0.90;0.90;;;;;4.40;95235.00;;;;5073053;28;20206;-60
2023/12/12 06:48:20;;;;;;;0.90;0.90;;;;;4.40;95230.00;;;;5073369;28;20213;-60
2023/12/12 06:50:48;;;;;;;13.13;1.80;;;;;4.50;95225.00;;;;5073497;28;20189;-60
2023/12/12 06:53:15;;;;;;;1.07;1.07;;;;;4.60;95236.00;;;;5073286;28;20232;-60
2023/12/12 06:55:43;;;;;;;0.70;0.70;;;;;4.60;95237.00;;;;5073197;28;20202;-61
2023/12/12 06:58:13;;;;;;;1.27;1.17;;;;;4.60;95242.00;;;;5072969;28;20195;-61
2023/12/12 07:00:42;;;;;;;1.70;1.10;;;;;4.70;95252.00;;;;5071479;28;20199;-61
2023/12/12 07:03:10;;;;;;;5.00;1.63;;;;;4.60;95243.00;;;;5072855;28;20211;-61
2023/12/12 07:05:38;;;;;;;0.80;0.80;;;;;4.70;95244.00;;;;5072863;28;20284;-61
2023/12/12 07:08:06;;;;;;;0.70;0.70;;;;;4.60;95249.00;;;;5072917;28;20206;-61
2023/12/12 07:10:33;;;;;;;1.80;1.27;;;;;4.70;95238.00;;;;5072861;28;20199;-61
2023/12/12 07:13:01;;;;;;;1.20;1.20;;;;;4.80;95259.00;;;;5072782;28;20217;-61
2023/12/12 07:15:30;;;;;;;1.07;1.07;;;;;4.80;95259.00;;;;5073074;28;20243;-61
2023/12/12 07:17:57;;;;;;;0.60;0.60;;;;;4.80;95261.00;;;;5071815;28;20203;-61
2023/12/12 07:20:24;;;;;;;2.53;1.37;;;;;4.90;95263.00;;;;5073134;28;20567;-61
2023/12/12 07:22:52;;;;;;;1.40;1.37;;;;;4.90;95257.00;;;;5072799;28;20211;-61
2023/12/12 07:25:20;;;;;;;0.90;0.90;;;;;5.00;95255.00;;;;5072663;28;20192;-62
2023/12/12 07:27:47;;;;;;;1.53;1.43;;;;;5.00;95239.00;;;;5072754;28;20215;-61
2023/12/12 07:30:15;;;;;;;0.70;0.70;;;;;5.10;95242.00;;;;5072628;28;20188;-61
2023/12/12 07:32:44;;;;;;;0.80;0.80;;;;;5.10;95234.00;;;;5073136;28;20212;-61
2023/12/12 07:35:11;;;;;;;0.73;0.73;;;;;5.10;95222.00;;;;5073085;28;20237;-61
2023/12/12 07:37:39;;;;;;;0.57;0.57;;;;;5.10;95220.00;;;;5073308;28;20190;-61
2023/12/12 07:40:08;;;;;;;0.77;0.77;;;;;5.10;95231.00;;;;5070221;28;20214;-61
2023/12/12 07:42:35;;;;;;;0.80;0.80;;;;;5.10;95218.00;;;;5070389;28;20316;-64
2023/12/12 07:45:03;;;;;;;0.50;0.50;;;;;5.10;95239.00;;;;5072138;28;20280;-64
2023/12/12 07:47:31;;;;;;;1.27;1.27;;;6.00;82.60;5.00;95242.00;;;;5074009;28;20216;-64
2023/12/12 07:50:00;;;;;;;1.03;1.03;;;5.90;82.10;5.00;95235.00;;;;5073402;28;20202;-64
2023/12/12 07:52:27;;;;;;;0.90;0.90;;;5.90;82.30;5.00;95240.00;;;;5074355;28;20635;-64
2023/12/12 07:54:54;;;;;;;0.70;0.70;;;5.90;83.40;5.10;95227.00;;;;5074105;28;20556;-63
2023/12/12 07:57:21;;;;;;;1.03;1.03;;;6.00;82.70;5.10;95244.00;;;;5074877;28;20197;-62
2023/12/12 07:59:48;;;;;;;2.67;1.53;;;6.00;82.70;5.20;95215.00;;;;5072062;28;20203;-61
2023/12/12 08:02:15;;;;;;;0.80;0.80;;;6.10;83.00;5.30;95211.00;;;;5074381;28;20216;-62
2023/12/12 08:04:42;;;;;;;0.87;0.87;;;6.10;83.30;5.30;95205.00;;;;5070509;28;20277;-62
2023/12/12 08:07:11;;;;;;;0.90;0.90;;;6.10;83.00;5.30;95215.00;;;;5074188;28;20218;-62
2023/12/12 08:09:38;;;;;;;1.00;1.00;;;6.20;83.40;5.40;95211.00;;;;5073842;28;20269;-62
2023/12/12 08:12:05;;;;;;;1.90;1.13;;;6.20;83.50;5.50;95198.00;;;;5074005;28;20277;-62
2023/12/12 08:14:33;;;;;;;1.97;1.60;;;6.30;83.80;5.50;95195.00;;;;5073406;28;20222;-62
2023/12/12 08:17:00;;;;;;;1.00;1.00;;;6.40;83.40;5.50;95179.00;;;;5074391;28;20251;-63
2023/12/12 08:19:27;;;;;;;0.83;0.83;;;6.40;83.20;5.50;95176.00;;;;5073334;28;20279;-62
2023/12/12 08:21:54;;;;;;;2.30;1.07;;;6.40;83.00;5.50;95168.00;;;;5072620;28;20218;-62
2023/12/12 08:24:22;;;;;;;0.60;0.60;;;6.40;83.40;5.60;95167.00;;;;5073516;28;20205;-62
2023/12/12 08:26:49;;;;;;;2.73;1.50;;;6.40;83.70;5.60;95170.00;;;;5072557;28;20206;-62
2023/12/12 08:29:17;;;;;;;0.90;0.90;;;6.50;83.70;5.60;95169.00;;;;5073495;28;20196;-62
2023/12/12 08:31:47;;;;;;;1.00;1.00;;;6.40;82.30;5.60;95160.00;;;;5072391;28;20228;-62
2023/12/12 08:34:14;;;;;;;0.77;0.77;;;6.40;82.20;5.60;95159.00;;;;5073251;28;20196;-62
2023/12/12 08:36:41;;;;;;;0.80;0.80;;;6.40;81.40;5.60;95162.00;;;;5072170;28;20194;-62
2023/12/12 08:39:08;;;;;;;0.90;0.90;;;6.50;81.80;5.70;95162.00;;;;5072836;28;20188;-61
2023/12/12 08:41:39;;;;;;;0.60;0.60;;;6.50;82.40;5.80;95139.00;;;;5073592;28;20233;-61
2023/12/12 08:44:06;;;;;;;0.97;0.90;;;6.60;83.10;5.80;95152.00;;;;5073305;28;20182;-62
2023/12/12 08:46:34;;;;;;;0.90;0.90;;;6.70;83.10;5.90;95143.00;;;;5073235;28;20210;-61
2023/12/12 08:49:01;;;;;;;0.70;0.70;;;6.70;83.20;5.90;95158.00;;;;5072467;28;20221;-61
2023/12/12 08:51:30;;;;;;;8.20;1.53;;;6.80;83.30;6.00;95165.00;;;;5073447;28;20522;-62
2023/12/12 08:53:59;;;;;;;1.20;1.13;;;6.80;83.20;6.00;95150.00;;;;5073227;28;20198;-62
2023/12/12 08:56:26;;;;;;;1.00;1.00;;;;;6.00;95173.00;;;;5072415;28;20195;-62
2023/12/12 08:58:55;;;;;;;1.37;1.20;;;;;6.00;95168.00;;;;5072046;28;20195;-62
2023/12/12 09:01:23;;;;;;;1.00;1.00;;;;;6.10;95160.00;;;;5069762;28;21967;-62
2023/12/12 09:03:50;;;;;;;1.17;1.07;;;;;6.10;95167.00;;;;5072276;28;20204;-63
2023/12/12 09:06:17;;;;;;;1.07;1.07;;;;;6.10;95177.00;;;;5072426;28;21033;-61
2023/12/12 09:08:45;;;;;;;1.07;0.90;;;;;6.10;95185.00;;;;5072118;28;20229;-60
2023/12/12 09:11:13;;;;;;;1.07;1.00;;;;;6.10;95179.00;;;;5072745;28;20206;-62
2023/12/12 09:13:42;;;;;;;0.80;0.80;;;;;6.10;95170.00;;;;5072695;28;20210;-61
2023/12/12 09:16:11;;;;;;;0.60;0.60;;;;;6.10;95161.00;;;;5072600;28;20199;-61
2023/12/12 09:18:38;;;;;;;1.20;1.10;;;;;6.10;95160.00;;;;5072620;28;20192;-61
2023/12/12 09:21:07;;;;;;;2.10;1.03;;;;;6.20;95153.00;;;;5072074;28;20261;-62
2023/12/12 09:23:34;;;;;;;0.80;0.80;;;;;6.20;95156.00;;;;5072291;28;20224;-61
2023/12/12 09:26:02;;;;;;;0.70;0.70;;;;;6.30;95149.00;;;;5070939;28;20191;-61
2023/12/12 09:28:29;;;;;;;1.50;0.93;;;;;6.30;95154.00;;;;5072123;28;20221;-61
2023/12/12 09:30:56;;;;;;;1.50;1.40;;;7.30;99.90;6.40;95157.00;;;;5072090;28;20187;-61
2023/12/12 09:33:25;;;;;;;1.20;1.10;;;;;6.30;95163.00;;;;5071995;28;20237;-61
2023/12/12 09:35:52;;;;;;;1.03;1.00;;;;;6.10;95163.00;;;;5071879;28;20357;-61
2023/12/12 09:38:20;;;;;;;1.30;1.23;;;;;6.00;95152.00;;;;5072039;28;20198;-62
2023/12/12 09:40:47;;;;;;;0.70;0.70;;;7.00;99.90;6.20;95139.00;;;;5071913;28;20713;-62
2023/12/12 09:43:15;;;;;;;0.70;0.70;;;;;6.40;95140.00;;;;5071985;28;20313;-62
2023/12/12 09:45:46;;;;;;;0.83;0.83;;;;;6.70;95130.00;;;;5067306;28;20199;-61
2023/12/12 09:48:14;;;;;;;2.17;1.97;;;;;6.80;95130.00;;;;5067719;28;20230;-61
2023/12/12 09:50:47;;;;;;;0.93;0.93;;;;;6.70;95128.00;;;;5071884;28;20195;-61
2023/12/12 09:53:15;;;;;;;0.80;0.80;;;;;6.70;95135.00;;;;5067822;28;20219;-61
2023/12/12 09:55:43;;;;;;;0.60;0.60;;;;;6.40;95126.00;;;;5069348;28;20203;-61
2023/12/12 09:58:11;;;;;;;0.70;0.70;;;;;6.40;95119.00;;;;5071664;28;20191;-62
2023/12/12 10:00:38;;;;;;;0.97;0.97;;;;;6.70;95119.00;;;;5071498;28;20545;-62
2023/12/12 10:03:08;;;;;;;1.37;1.27;;;7.50;96.60;6.80;95091.00;;;;5072028;28;20219;-62
2023/12/12 10:05:38;;;;;;;0.80;0.80;;;;;6.90;95104.00;;;;5070882;28;20192;-62
2023/12/12 10:08:08;;;;;;;0.50;0.50;;;7.70;96.20;7.00;95103.00;;;;5071246;28;20203;-62
2023/12/12 10:10:35;;;;;;;1.03;1.03;;;7.80;96.90;6.90;95109.00;;;;5071015;28;20554;-62
2023/12/12 10:13:02;;;;;;;0.83;0.83;;;7.70;99.20;6.80;95110.00;;;;5071622;28;20210;-62
2023/12/12 10:15:29;;;;;;;0.93;0.93;;;7.60;95.80;6.70;95114.00;;;;5071532;28;20183;-62
2023/12/12 10:17:58;;;;;;;1.17;1.17;;;7.50;96.40;6.60;95109.00;;;;5071473;28;20281;-62
2023/12/12 10:20:27;;;;;;;0.50;0.50;;;7.50;96.00;6.80;95083.00;;;;5071604;28;20208;-62
2023/12/12 10:22:57;;;;;;;0.70;0.70;;;;;6.70;95099.00;;;;5071492;28;20215;-62
2023/12/12 10:25:26;;;;;;;0.90;0.90;;;7.50;96.00;6.60;95109.00;;;;5071811;28;20195;-62
2023/12/12 10:27:53;;;;;;;0.77;0.77;;;7.50;96.80;6.50;95096.00;;;;5071093;28;20234;-62
2023/12/12 10:30:22;;;;;;;1.27;1.27;;;7.40;96.50;6.60;95091.00;;;;5071520;28;20577;-62
2023/12/12 10:32:51;;;;;;;0.90;0.90;;;;;6.70;95092.00;;;;5071205;28;20223;-62
2023/12/12 10:35:20;;;;;;;0.70;0.70;;;;;6.80;95088.00;;;;5071000;28;20210;-62
2023/12/12 10:37:47;;;;;;;0.90;0.90;;;;;7.10;95071.00;;;;5070979;28;20617;-61
2023/12/12 10:40:17;;;;;;;1.10;1.10;;;7.80;98.70;7.20;95052.00;;;;5071068;28;20203;-62
2023/12/12 10:42:46;;;;;;;1.40;1.30;;;7.90;98.80;7.20;95054.00;;;;5070717;28;20747;-62
2023/12/12 10:45:14;;;;;;;0.50;0.50;;;8.00;98.20;7.30;95046.00;;;;5071201;28;20195;-62
2023/12/12 10:47:45;;;;;;;1.60;1.50;;;8.10;97.60;7.40;95035.00;;;;5071120;28;20313;-62
2023/12/12 10:50:14;;;;;;;0.67;0.67;;;8.10;97.60;7.40;95023.00;;;;5070727;28;20231;-62
2023/12/12 10:52:43;;;;;;;2.13;1.43;;;8.20;96.80;7.40;95021.00;;;;5066507;28;20307;-62
2023/12/12 10:55:12;;;;;;;0.97;0.97;;;8.20;97.30;7.50;95024.00;;;;5071590;28;20275;-61
2023/12/12 10:57:43;;;;;;;0.80;0.80;;;8.30;97.70;7.50;95025.00;;;;5069771;28;20206;-62
2023/12/12 11:00:15;;;;;;;0.70;0.70;;;8.20;97.90;7.50;95010.00;;;;5069804;28;20282;-62
2023/12/12 11:02:45;;;;;;;1.00;1.00;;;8.30;98.20;7.60;95004.00;;;;5070472;28;20225;-62
2023/12/12 11:05:14;;;;;;;0.83;0.83;;;;;7.70;95000.00;;;;5071180;28;20622;-62
2023/12/12 11:07:46;;;;;;;0.70;0.70;;;8.40;99.40;7.60;95007.00;;;;5070832;28;20215;-62
2023/12/12 11:10:16;;;;;;;1.00;1.00;;;8.50;96.70;7.80;94990.00;;;;5070759;28;20261;-62
2023/12/12 11:12:50;;;;;;;1.13;1.07;;;8.50;97.40;7.80;94999.00;;;;5070605;28;20234;-62
2023/12/12 11:15:21;;;;;;;0.87;0.87;;;8.50;96.60;7.80;94984.00;;;;5070710;28;20190;-62
2023/12/12 11:17:50;;;;;;;1.23;1.23;;;8.50;97.10;7.90;94981.00;;;;5071891;28;20237;-62
2023/12/12 11:20:20;;;;;;;2.37;1.57;;;8.60;97.10;7.90;94985.00;;;;5066444;28;20196;-62
2023/12/12 11:22:49;;;;;;;0.67;0.67;;;8.60;96.40;7.80;94973.00;;;;5069961;28;20860;-62
2023/12/12 11:25:19;;;;;;;0.70;0.70;;;8.60;96.30;7.90;94959.00;;;;5074504;28;20187;-62
2023/12/12 11:27:49;;;;;;;3.70;1.33;;;8.60;96.70;7.80;94960.00;;;;5074645;28;20183;-62
2023/12/12 11:30:19;;;;;;;1.37;1.27;;;8.60;96.00;7.80;94950.00;;;;5073185;28;20250;-62
2023/12/12 11:32:48;;;;;;;0.80;0.80;;;8.60;96.30;8.00;94949.00;;;;5074153;28;20211;-62
2023/12/12 11:35:29;;;;;;;1.17;1.17;;;8.70;96.60;8.00;94941.00;;;;5074348;28;20183;-62
2023/12/12 11:37:57;;;;;;;1.10;1.10;;;8.80;96.50;8.00;94933.00;;;;5074127;28;20187;-62
2023/12/12 11:40:26;;;;;;;0.67;0.67;;;8.80;96.00;7.90;94934.00;;;;5074482;28;20222;-63
2023/12/12 11:42:56;;;;;;;0.93;0.93;;;8.70;95.90;8.00;94916.00;;;;5077326;28;20219;-62
2023/12/12 11:45:35;;;;;;;0.70;0.70;;;8.80;96.20;8.00;94912.00;;;;5075036;28;20726;-62
2023/12/12 11:48:07;;;;;;;0.70;0.70;;;8.80;95.90;8.00;94909.00;;;;5075636;28;20666;-62
2023/12/12 11:50:35;;;;;;;0.97;0.83;;;8.80;95.30;8.00;94903.00;;;;5075586;28;20191;-62
2023/12/12 11:53:03;;;;;;;1.50;1.43;;;8.80;95.40;8.00;94899.00;;;;5072922;28;20593;-62
2023/12/12 11:55:34;;;;;;;3.20;2.23;;;8.90;95.60;8.10;94877.00;;;;5073178;28;20270;-62
2023/12/12 11:58:04;;;;;;;1.63;1.57;;;8.90;95.90;8.20;94871.00;;;;5074067;28;20206;-62